sensor_id;sensor_type;location;lat;lon;timestamp;temperature;humidity
39067;DHT22;24821;51.988;6.020;2022-12-10T00:00:51;-0.50;99.90
39067;DHT22;24821;51.988;6.020;2022-12-10T00:03:17;-0.50;99.90
39067;DHT22;24821;51.988;6.020;2022-12-10T00:05:42;-0.50;99.90
39067;DHT22;24821;51.988;6.020;2022-12-10T00:08:08;-0.50;99.90
39067;DHT22;24821;51.988;6.020;2022-12-10T00:10:33;-0.50;99.90
39067;DHT22;24821;51.988;6.020;2022-12-10T00:12:59;-0.50;99.90
39067;DHT22;24821;51.988;6.020;2022-12-10T00:15:24;-0.60;99.90
39067;DHT22;24821;51.988;6.020;2022-12-10T00:17:50;-0.60;99.90
39067;DHT22;24821;51.988;6.020;2022-12-10T00:20:15;-0.60;99.90
39067;DHT22;24821;51.988;6.020;2022-12-10T00:22:41;-0.60;99.90
39067;DHT22;24821;51.988;6.020;2022-12-10T00:25:07;-0.60;99.90
39067;DHT22;24821;51.988;6.020;2022-12-10T00:27:33;-0.60;99.90
39067;DHT22;24821;51.988;6.020;2022-12-10T00:29:58;-0.60;99.90
39067;DHT22;24821;51.988;6.020;2022-12-10T00:32:24;-0.60;99.90
39067;DHT22;24821;51.988;6.020;2022-12-10T00:34:49;-0.60;99.90
39067;DHT22;24821;51.988;6.020;2022-12-10T00:37:15;-0.60;99.90
39067;DHT22;24821;51.988;6.020;2022-12-10T00:39:40;-0.60;99.90
39067;DHT22;24821;51.988;6.020;2022-12-10T00:42:06;-0.60;99.90
39067;DHT22;24821;51.988;6.020;2022-12-10T00:44:31;-0.60;99.90
39067;DHT22;24821;51.988;6.020;2022-12-10T00:46:57;-0.60;99.90
39067;DHT22;24821;51.988;6.020;2022-12-10T00:49:22;-0.60;99.90
39067;DHT22;24821;51.988;6.020;2022-12-10T00:51:49;-0.60;99.90
39067;DHT22;24821;51.988;6.020;2022-12-10T00:54:15;-0.60;99.90
39067;DHT22;24821;51.988;6.020;2022-12-10T00:56:40;-0.50;99.90
39067;DHT22;24821;51.988;6.020;2022-12-10T00:59:06;-0.60;99.90
39067;DHT22;24821;51.988;6.020;2022-12-10T01:01:37;-0.60;99.90
39067;DHT22;24821;51.988;6.020;2022-12-10T01:04:12;-0.60;99.90
39067;DHT22;24821;51.988;6.020;2022-12-10T01:06:49;-0.60;99.90
39067;DHT22;24821;51.988;6.020;2022-12-10T01:09:24;-0.50;99.90
39067;DHT22;24821;51.988;6.020;2022-12-10T01:11:50;-0.60;99.90
39067;DHT22;24821;51.988;6.020;2022-12-10T01:14:21;-0.60;99.90
39067;DHT22;24821;51.988;6.020;2022-12-10T01:16:48;-0.60;99.90
39067;DHT22;24821;51.988;6.020;2022-12-10T01:19:13;-0.60;99.90
39067;DHT22;24821;51.988;6.020;2022-12-10T01:21:39;-0.60;99.90
39067;DHT22;24821;51.988;6.020;2022-12-10T01:24:05;-0.60;99.90
39067;DHT22;24821;51.988;6.020;2022-12-10T01:26:33;-0.70;99.90
39067;DHT22;24821;51.988;6.020;2022-12-10T01:28:59;-0.70;99.90
39067;DHT22;24821;51.988;6.020;2022-12-10T01:31:28;-0.70;99.90
39067;DHT22;24821;51.988;6.020;2022-12-10T01:33:54;-0.70;99.90
39067;DHT22;24821;51.988;6.020;2022-12-10T01:36:30;-0.70;99.90
39067;DHT22;24821;51.988;6.020;2022-12-10T01:38:58;-0.60;99.90
39067;DHT22;24821;51.988;6.020;2022-12-10T01:41:30;-0.70;99.90
39067;DHT22;24821;51.988;6.020;2022-12-10T01:46:48;-0.60;99.90
39067;DHT22;24821;51.988;6.020;2022-12-10T01:49:18;-0.70;99.90
39067;DHT22;24821;51.988;6.020;2022-12-10T01:51:48;-0.70;99.90
39067;DHT22;24821;51.988;6.020;2022-12-10T01:54:26;-0.70;99.90
39067;DHT22;24821;51.988;6.020;2022-12-10T01:57:00;-0.70;99.90
39067;DHT22;24821;51.988;6.020;2022-12-10T01:59:28;-0.70;99.90
39067;DHT22;24821;51.988;6.020;2022-12-10T02:02:30;-0.70;99.90
39067;DHT22;24821;51.988;6.020;2022-12-10T02:13:18;-0.80;99.90
39067;DHT22;24821;51.988;6.020;2022-12-10T02:15:53;-0.80;99.90
39067;DHT22;24821;51.988;6.020;2022-12-10T02:18:27;-0.80;99.90
39067;DHT22;24821;51.988;6.020;2022-12-10T02:20:57;-0.90;99.90
39067;DHT22;24821;51.988;6.020;2022-12-10T02:23:28;-0.80;99.90
39067;DHT22;24821;51.988;6.020;2022-12-10T02:31:34;-0.90;99.90
39067;DHT22;24821;51.988;6.020;2022-12-10T02:34:03;-0.90;99.90
39067;DHT22;24821;51.988;6.020;2022-12-10T02:36:33;-0.90;99.90
39067;DHT22;24821;51.988;6.020;2022-12-10T02:39:01;-0.90;99.90
39067;DHT22;24821;51.988;6.020;2022-12-10T02:41:34;-0.90;99.90
39067;DHT22;24821;51.988;6.020;2022-12-10T02:44:03;-0.90;99.90
39067;DHT22;24821;51.988;6.020;2022-12-10T02:46:31;-1.00;99.90
39067;DHT22;24821;51.988;6.020;2022-12-10T02:48:58;-1.00;99.90
39067;DHT22;24821;51.988;6.020;2022-12-10T02:51:25;-1.00;99.90
39067;DHT22;24821;51.988;6.020;2022-12-10T02:54:04;-1.00;99.90
39067;DHT22;24821;51.988;6.020;2022-12-10T02:56:33;-1.00;99.90
39067;DHT22;24821;51.988;6.020;2022-12-10T03:04:28;-1.00;99.90
39067;DHT22;24821;51.988;6.020;2022-12-10T03:07:04;-1.00;99.90
39067;DHT22;24821;51.988;6.020;2022-12-10T03:09:37;-1.00;99.90
39067;DHT22;24821;51.988;6.020;2022-12-10T03:12:28;-0.90;99.90
39067;DHT22;24821;51.988;6.020;2022-12-10T03:14:58;-0.90;99.90
39067;DHT22;24821;51.988;6.020;2022-12-10T03:17:26;-0.90;99.90
39067;DHT22;24821;51.988;6.020;2022-12-10T03:19:55;-0.90;99.90
39067;DHT22;24821;51.988;6.020;2022-12-10T03:22:22;-1.00;99.90
39067;DHT22;24821;51.988;6.020;2022-12-10T03:24:47;-0.90;99.90
39067;DHT22;24821;51.988;6.020;2022-12-10T03:27:15;-0.90;99.90
39067;DHT22;24821;51.988;6.020;2022-12-10T03:29:52;-1.00;99.90
39067;DHT22;24821;51.988;6.020;2022-12-10T03:32:21;-1.00;99.90
39067;DHT22;24821;51.988;6.020;2022-12-10T03:34:47;-1.00;99.90
39067;DHT22;24821;51.988;6.020;2022-12-10T03:37:14;-1.00;99.90
39067;DHT22;24821;51.988;6.020;2022-12-10T03:39:41;-1.00;99.90
39067;DHT22;24821;51.988;6.020;2022-12-10T03:42:07;-1.00;99.90
39067;DHT22;24821;51.988;6.020;2022-12-10T03:44:36;-1.00;99.90
39067;DHT22;24821;51.988;6.020;2022-12-10T03:47:04;-1.00;99.90
39067;DHT22;24821;51.988;6.020;2022-12-10T03:49:30;-1.00;99.90
39067;DHT22;24821;51.988;6.020;2022-12-10T03:51:56;-1.00;99.90
39067;DHT22;24821;51.988;6.020;2022-12-10T03:54:21;-1.00;99.90
39067;DHT22;24821;51.988;6.020;2022-12-10T03:56:48;-1.00;99.90
39067;DHT22;24821;51.988;6.020;2022-12-10T03:59:13;-1.00;99.90
39067;DHT22;24821;51.988;6.020;2022-12-10T04:01:39;-1.00;99.90
39067;DHT22;24821;51.988;6.020;2022-12-10T04:04:05;-1.00;99.90
39067;DHT22;24821;51.988;6.020;2022-12-10T04:06:31;-1.00;99.90
39067;DHT22;24821;51.988;6.020;2022-12-10T04:08:56;-1.00;99.90
39067;DHT22;24821;51.988;6.020;2022-12-10T04:11:22;-1.00;99.90
39067;DHT22;24821;51.988;6.020;2022-12-10T04:13:48;-1.00;99.90
39067;DHT22;24821;51.988;6.020;2022-12-10T04:16:34;-1.00;99.90
39067;DHT22;24821;51.988;6.020;2022-12-10T04:19:11;-0.90;99.90
39067;DHT22;24821;51.988;6.020;2022-12-10T04:21:38;-0.90;99.90
39067;DHT22;24821;51.988;6.020;2022-12-10T04:24:25;-0.90;99.90
39067;DHT22;24821;51.988;6.020;2022-12-10T04:27:12;-0.90;99.90
39067;DHT22;24821;51.988;6.020;2022-12-10T04:29:39;-0.90;99.90
39067;DHT22;24821;51.988;6.020;2022-12-10T04:32:05;-0.80;99.90
39067;DHT22;24821;51.988;6.020;2022-12-10T04:34:31;-0.90;99.90
39067;DHT22;24821;51.988;6.020;2022-12-10T04:36:58;-0.90;99.90
39067;DHT22;24821;51.988;6.020;2022-12-10T04:39:24;-0.90;99.90
39067;DHT22;24821;51.988;6.020;2022-12-10T04:41:50;-0.80;99.90
39067;DHT22;24821;51.988;6.020;2022-12-10T04:44:16;-0.80;99.90
39067;DHT22;24821;51.988;6.020;2022-12-10T04:46:42;-0.80;99.90
39067;DHT22;24821;51.988;6.020;2022-12-10T04:49:08;-0.90;99.90
39067;DHT22;24821;51.988;6.020;2022-12-10T04:51:33;-0.90;99.90
39067;DHT22;24821;51.988;6.020;2022-12-10T04:53:59;-0.90;99.90
39067;DHT22;24821;51.988;6.020;2022-12-10T04:56:25;-0.80;99.90
39067;DHT22;24821;51.988;6.020;2022-12-10T04:58:50;-0.70;99.90
39067;DHT22;24821;51.988;6.020;2022-12-10T05:01:16;-0.70;99.90
39067;DHT22;24821;51.988;6.020;2022-12-10T05:03:44;-0.70;99.90
39067;DHT22;24821;51.988;6.020;2022-12-10T05:06:12;-0.70;99.90
39067;DHT22;24821;51.988;6.020;2022-12-10T05:08:38;-0.60;99.90
39067;DHT22;24821;51.988;6.020;2022-12-10T05:11:06;-0.60;99.90
39067;DHT22;24821;51.988;6.020;2022-12-10T05:13:32;-0.60;99.90
39067;DHT22;24821;51.988;6.020;2022-12-10T05:16:00;-0.50;99.90
39067;DHT22;24821;51.988;6.020;2022-12-10T05:18:26;-0.50;99.90
39067;DHT22;24821;51.988;6.020;2022-12-10T05:20:51;-0.50;99.90
39067;DHT22;24821;51.988;6.020;2022-12-10T05:23:17;-0.50;99.90
39067;DHT22;24821;51.988;6.020;2022-12-10T05:26:21;-0.50;99.90
39067;DHT22;24821;51.988;6.020;2022-12-10T05:28:54;-0.40;99.90
39067;DHT22;24821;51.988;6.020;2022-12-10T05:31:27;-0.40;99.90
39067;DHT22;24821;51.988;6.020;2022-12-10T05:33:54;-0.30;99.90
39067;DHT22;24821;51.988;6.020;2022-12-10T05:36:24;-0.30;99.90
39067;DHT22;24821;51.988;6.020;2022-12-10T05:38:51;-0.30;99.90
39067;DHT22;24821;51.988;6.020;2022-12-10T05:41:22;-0.30;99.90
39067;DHT22;24821;51.988;6.020;2022-12-10T05:43:48;-0.30;99.90
39067;DHT22;24821;51.988;6.020;2022-12-10T05:46:17;-0.30;99.90
39067;DHT22;24821;51.988;6.020;2022-12-10T05:48:43;-0.30;99.90
39067;DHT22;24821;51.988;6.020;2022-12-10T05:51:14;-0.20;99.90
39067;DHT22;24821;51.988;6.020;2022-12-10T05:53:40;-0.20;99.90
39067;DHT22;24821;51.988;6.020;2022-12-10T05:56:14;-0.20;99.90
39067;DHT22;24821;51.988;6.020;2022-12-10T05:58:41;-0.20;99.90
39067;DHT22;24821;51.988;6.020;2022-12-10T06:01:08;-0.20;99.90
39067;DHT22;24821;51.988;6.020;2022-12-10T06:03:34;-0.20;99.90
39067;DHT22;24821;51.988;6.020;2022-12-10T06:06:00;-0.20;99.90
39067;DHT22;24821;51.988;6.020;2022-12-10T06:08:25;-0.20;99.90
39067;DHT22;24821;51.988;6.020;2022-12-10T06:10:51;-0.20;99.90
39067;DHT22;24821;51.988;6.020;2022-12-10T06:13:16;-0.20;99.90
39067;DHT22;24821;51.988;6.020;2022-12-10T06:15:42;-0.30;99.90
39067;DHT22;24821;51.988;6.020;2022-12-10T06:18:08;-0.30;99.90
39067;DHT22;24821;51.988;6.020;2022-12-10T06:20:37;-0.30;99.90
39067;DHT22;24821;51.988;6.020;2022-12-10T06:23:03;-0.30;99.90
39067;DHT22;24821;51.988;6.020;2022-12-10T06:25:29;-0.30;99.90
39067;DHT22;24821;51.988;6.020;2022-12-10T06:27:54;-0.20;99.90
39067;DHT22;24821;51.988;6.020;2022-12-10T06:30:20;-0.30;99.90
39067;DHT22;24821;51.988;6.020;2022-12-10T06:32:45;-0.30;99.90
39067;DHT22;24821;51.988;6.020;2022-12-10T06:35:11;-0.30;99.90
39067;DHT22;24821;51.988;6.020;2022-12-10T06:37:37;-0.30;99.90
39067;DHT22;24821;51.988;6.020;2022-12-10T06:40:04;-0.30;99.90
39067;DHT22;24821;51.988;6.020;2022-12-10T06:42:29;-0.40;99.90
39067;DHT22;24821;51.988;6.020;2022-12-10T06:44:55;-0.40;99.90
39067;DHT22;24821;51.988;6.020;2022-12-10T06:47:21;-0.40;99.90
39067;DHT22;24821;51.988;6.020;2022-12-10T06:49:46;-0.40;99.90
39067;DHT22;24821;51.988;6.020;2022-12-10T06:52:12;-0.40;99.90
39067;DHT22;24821;51.988;6.020;2022-12-10T06:54:38;-0.40;99.90
39067;DHT22;24821;51.988;6.020;2022-12-10T06:57:03;-0.30;99.90
39067;DHT22;24821;51.988;6.020;2022-12-10T06:59:29;-0.30;99.90
39067;DHT22;24821;51.988;6.020;2022-12-10T07:01:55;-0.30;99.90
39067;DHT22;24821;51.988;6.020;2022-12-10T07:04:20;-0.30;99.90
39067;DHT22;24821;51.988;6.020;2022-12-10T07:06:46;-0.30;99.90
39067;DHT22;24821;51.988;6.020;2022-12-10T07:09:12;-0.30;99.90
39067;DHT22;24821;51.988;6.020;2022-12-10T07:11:37;-0.30;99.90
39067;DHT22;24821;51.988;6.020;2022-12-10T07:14:03;-0.20;99.90
39067;DHT22;24821;51.988;6.020;2022-12-10T07:16:31;-0.20;99.90
39067;DHT22;24821;51.988;6.020;2022-12-10T07:18:59;-0.20;99.90
39067;DHT22;24821;51.988;6.020;2022-12-10T07:21:33;-0.20;99.90
39067;DHT22;24821;51.988;6.020;2022-12-10T07:24:00;-0.30;99.90
39067;DHT22;24821;51.988;6.020;2022-12-10T07:26:31;-0.30;99.90
39067;DHT22;24821;51.988;6.020;2022-12-10T07:29:02;-0.30;99.90
39067;DHT22;24821;51.988;6.020;2022-12-10T07:31:31;-0.30;99.90
39067;DHT22;24821;51.988;6.020;2022-12-10T07:33:58;-0.30;99.90
39067;DHT22;24821;51.988;6.020;2022-12-10T07:36:24;-0.30;99.90
39067;DHT22;24821;51.988;6.020;2022-12-10T07:38:51;-0.30;99.90
39067;DHT22;24821;51.988;6.020;2022-12-10T07:41:17;-0.30;99.90
39067;DHT22;24821;51.988;6.020;2022-12-10T07:43:44;-0.30;99.90
39067;DHT22;24821;51.988;6.020;2022-12-10T07:46:17;-0.30;99.90
39067;DHT22;24821;51.988;6.020;2022-12-10T07:48:45;-0.30;99.90
39067;DHT22;24821;51.988;6.020;2022-12-10T07:51:11;-0.30;99.90
39067;DHT22;24821;51.988;6.020;2022-12-10T07:53:37;-0.30;99.90
39067;DHT22;24821;51.988;6.020;2022-12-10T07:56:03;-0.30;99.90
39067;DHT22;24821;51.988;6.020;2022-12-10T07:58:29;-0.30;99.90
39067;DHT22;24821;51.988;6.020;2022-12-10T08:00:55;-0.40;99.90
39067;DHT22;24821;51.988;6.020;2022-12-10T08:03:21;-0.30;99.90
39067;DHT22;24821;51.988;6.020;2022-12-10T08:05:47;-0.30;99.90
39067;DHT22;24821;51.988;6.020;2022-12-10T08:08:12;-0.30;99.90
39067;DHT22;24821;51.988;6.020;2022-12-10T08:10:39;-0.30;99.90
39067;DHT22;24821;51.988;6.020;2022-12-10T08:13:05;-0.30;99.90
39067;DHT22;24821;51.988;6.020;2022-12-10T08:15:31;-0.30;99.90
39067;DHT22;24821;51.988;6.020;2022-12-10T08:17:57;-0.30;99.90
39067;DHT22;24821;51.988;6.020;2022-12-10T08:20:24;-0.40;99.90
39067;DHT22;24821;51.988;6.020;2022-12-10T08:22:50;-0.40;99.90
39067;DHT22;24821;51.988;6.020;2022-12-10T08:25:16;-0.40;99.90
39067;DHT22;24821;51.988;6.020;2022-12-10T08:27:42;-0.30;99.90
39067;DHT22;24821;51.988;6.020;2022-12-10T08:30:08;-0.30;99.90
39067;DHT22;24821;51.988;6.020;2022-12-10T08:32:33;-0.20;99.90
39067;DHT22;24821;51.988;6.020;2022-12-10T08:34:59;-0.20;99.90
39067;DHT22;24821;51.988;6.020;2022-12-10T08:37:24;-0.20;99.90
39067;DHT22;24821;51.988;6.020;2022-12-10T08:39:50;-0.20;99.90
39067;DHT22;24821;51.988;6.020;2022-12-10T08:42:15;-0.10;99.90
39067;DHT22;24821;51.988;6.020;2022-12-10T08:44:41;-0.10;99.90
39067;DHT22;24821;51.988;6.020;2022-12-10T08:47:07;0.00;99.90
39067;DHT22;24821;51.988;6.020;2022-12-10T08:49:33;0.00;99.90
39067;DHT22;24821;51.988;6.020;2022-12-10T08:51:58;0.00;99.90
39067;DHT22;24821;51.988;6.020;2022-12-10T08:54:27;0.00;99.90
39067;DHT22;24821;51.988;6.020;2022-12-10T08:56:52;-0.10;99.90
39067;DHT22;24821;51.988;6.020;2022-12-10T08:59:18;-0.10;99.90
39067;DHT22;24821;51.988;6.020;2022-12-10T09:01:43;-0.10;99.90
39067;DHT22;24821;51.988;6.020;2022-12-10T09:04:09;-0.10;99.90
39067;DHT22;24821;51.988;6.020;2022-12-10T09:06:35;-0.10;99.90
39067;DHT22;24821;51.988;6.020;2022-12-10T09:09:01;-0.10;99.90
39067;DHT22;24821;51.988;6.020;2022-12-10T09:11:29;-0.10;99.90
39067;DHT22;24821;51.988;6.020;2022-12-10T09:13:56;-0.10;99.90
39067;DHT22;24821;51.988;6.020;2022-12-10T09:16:28;-0.10;99.90
39067;DHT22;24821;51.988;6.020;2022-12-10T09:18:53;-0.10;99.90
39067;DHT22;24821;51.988;6.020;2022-12-10T09:21:19;-0.10;99.90
39067;DHT22;24821;51.988;6.020;2022-12-10T09:23:45;-0.10;99.90
39067;DHT22;24821;51.988;6.020;2022-12-10T09:26:14;-0.10;99.90
39067;DHT22;24821;51.988;6.020;2022-12-10T09:28:40;-0.10;99.90
39067;DHT22;24821;51.988;6.020;2022-12-10T09:31:09;-0.10;99.90
39067;DHT22;24821;51.988;6.020;2022-12-10T09:33:36;0.00;99.90
39067;DHT22;24821;51.988;6.020;2022-12-10T09:36:06;0.00;99.90
39067;DHT22;24821;51.988;6.020;2022-12-10T09:38:34;0.10;99.90
39067;DHT22;24821;51.988;6.020;2022-12-10T09:41:02;0.10;99.90
39067;DHT22;24821;51.988;6.020;2022-12-10T09:49:02;0.10;99.90
39067;DHT22;24821;51.988;6.020;2022-12-10T09:51:36;0.20;99.90
39067;DHT22;24821;51.988;6.020;2022-12-10T09:54:22;0.20;99.90
39067;DHT22;24821;51.988;6.020;2022-12-10T09:56:50;0.30;99.90
39067;DHT22;24821;51.988;6.020;2022-12-10T09:59:29;0.20;99.90
39067;DHT22;24821;51.988;6.020;2022-12-10T10:02:23;0.30;99.90
39067;DHT22;24821;51.988;6.020;2022-12-10T10:04:50;0.30;99.90
39067;DHT22;24821;51.988;6.020;2022-12-10T10:07:28;0.30;99.90
39067;DHT22;24821;51.988;6.020;2022-12-10T10:09:59;0.40;99.90
39067;DHT22;24821;51.988;6.020;2022-12-10T10:12:27;0.40;99.90
39067;DHT22;24821;51.988;6.020;2022-12-10T10:14:53;0.40;99.90
39067;DHT22;24821;51.988;6.020;2022-12-10T10:17:22;0.30;99.90
39067;DHT22;24821;51.988;6.020;2022-12-10T10:19:51;0.30;99.90
39067;DHT22;24821;51.988;6.020;2022-12-10T10:22:17;0.30;99.90
39067;DHT22;24821;51.988;6.020;2022-12-10T10:24:44;0.30;99.90
39067;DHT22;24821;51.988;6.020;2022-12-10T10:27:26;0.40;99.90
39067;DHT22;24821;51.988;6.020;2022-12-10T10:29:55;0.40;99.90
39067;DHT22;24821;51.988;6.020;2022-12-10T10:32:27;0.40;99.90
39067;DHT22;24821;51.988;6.020;2022-12-10T10:35:21;0.40;99.90
39067;DHT22;24821;51.988;6.020;2022-12-10T10:37:47;0.40;99.90
39067;DHT22;24821;51.988;6.020;2022-12-10T10:40:26;0.50;99.90
39067;DHT22;24821;51.988;6.020;2022-12-10T10:42:55;0.50;99.90
39067;DHT22;24821;51.988;6.020;2022-12-10T10:45:39;0.50;99.90
39067;DHT22;24821;51.988;6.020;2022-12-10T10:48:15;0.60;99.90
39067;DHT22;24821;51.988;6.020;2022-12-10T10:50:51;0.60;99.90
39067;DHT22;24821;51.988;6.020;2022-12-10T10:53:31;0.60;99.90
39067;DHT22;24821;51.988;6.020;2022-12-10T10:56:01;0.60;99.90
39067;DHT22;24821;51.988;6.020;2022-12-10T10:58:30;0.60;99.90
39067;DHT22;24821;51.988;6.020;2022-12-10T11:01:02;0.70;99.90
39067;DHT22;24821;51.988;6.020;2022-12-10T11:03:32;0.70;99.90
39067;DHT22;24821;51.988;6.020;2022-12-10T11:05:59;0.70;99.90
39067;DHT22;24821;51.988;6.020;2022-12-10T11:08:28;0.70;99.90
39067;DHT22;24821;51.988;6.020;2022-12-10T11:13:42;0.80;99.90
39067;DHT22;24821;51.988;6.020;2022-12-10T11:16:15;0.70;99.90
39067;DHT22;24821;51.988;6.020;2022-12-10T11:19:02;0.80;99.90
39067;DHT22;24821;51.988;6.020;2022-12-10T11:21:31;0.80;99.90
39067;DHT22;24821;51.988;6.020;2022-12-10T11:23:58;0.80;99.90
39067;DHT22;24821;51.988;6.020;2022-12-10T11:26:54;0.80;99.90
39067;DHT22;24821;51.988;6.020;2022-12-10T11:32:04;0.80;99.90
39067;DHT22;24821;51.988;6.020;2022-12-10T11:34:41;0.90;99.90
39067;DHT22;24821;51.988;6.020;2022-12-10T11:37:32;0.90;99.90
39067;DHT22;24821;51.988;6.020;2022-12-10T11:51:20;1.10;99.90
39067;DHT22;24821;51.988;6.020;2022-12-10T11:53:58;1.10;99.90
39067;DHT22;24821;51.988;6.020;2022-12-10T11:56:49;1.10;99.90
39067;DHT22;24821;51.988;6.020;2022-12-10T11:59:53;1.10;99.90
39067;DHT22;24821;51.988;6.020;2022-12-10T12:02:46;1.10;99.90
39067;DHT22;24821;51.988;6.020;2022-12-10T12:13:22;0.90;99.90
39067;DHT22;24821;51.988;6.020;2022-12-10T12:16:01;0.90;99.90
39067;DHT22;24821;51.988;6.020;2022-12-10T12:18:40;1.00;99.90
39067;DHT22;24821;51.988;6.020;2022-12-10T12:21:15;1.00;99.90
39067;DHT22;24821;51.988;6.020;2022-12-10T12:23:47;1.00;99.90
39067;DHT22;24821;51.988;6.020;2022-12-10T12:26:29;1.00;99.90
39067;DHT22;24821;51.988;6.020;2022-12-10T12:31:38;1.00;99.90
39067;DHT22;24821;51.988;6.020;2022-12-10T12:36:58;1.10;99.90
39067;DHT22;24821;51.988;6.020;2022-12-10T12:47:38;1.00;99.90
39067;DHT22;24821;51.988;6.020;2022-12-10T12:50:20;1.10;99.90
39067;DHT22;24821;51.988;6.020;2022-12-10T12:52:57;1.00;99.90
39067;DHT22;24821;51.988;6.020;2022-12-10T12:58:34;1.00;99.90
39067;DHT22;24821;51.988;6.020;2022-12-10T13:01:24;1.00;99.90
39067;DHT22;24821;51.988;6.020;2022-12-10T13:03:51;1.10;99.90
39067;DHT22;24821;51.988;6.020;2022-12-10T13:06:21;1.00;99.90
39067;DHT22;24821;51.988;6.020;2022-12-10T13:11:43;1.00;99.90
39067;DHT22;24821;51.988;6.020;2022-12-10T13:22:59;1.10;99.90
39067;DHT22;24821;51.988;6.020;2022-12-10T13:25:10;1.10;99.90
39067;DHT22;24821;51.988;6.020;2022-12-10T13:27:37;1.10;99.90
39067;DHT22;24821;51.988;6.020;2022-12-10T13:43:35;0.90;99.90
39067;DHT22;24821;51.988;6.020;2022-12-10T13:48:54;0.90;99.90
39067;DHT22;24821;51.988;6.020;2022-12-10T13:51:39;0.90;99.90
39067;DHT22;24821;51.988;6.020;2022-12-10T13:59:44;1.00;99.90
39067;DHT22;24821;51.988;6.020;2022-12-10T14:02:45;1.00;99.90
39067;DHT22;24821;51.988;6.020;2022-12-10T14:08:27;1.10;99.90
39067;DHT22;24821;51.988;6.020;2022-12-10T14:10:54;1.00;99.90
39067;DHT22;24821;51.988;6.020;2022-12-10T14:13:32;1.00;99.90
39067;DHT22;24821;51.988;6.020;2022-12-10T14:16:01;1.00;99.90
39067;DHT22;24821;51.988;6.020;2022-12-10T14:18:28;1.00;99.90
39067;DHT22;24821;51.988;6.020;2022-12-10T14:20:57;1.10;99.90
39067;DHT22;24821;51.988;6.020;2022-12-10T14:23:31;1.10;99.90
39067;DHT22;24821;51.988;6.020;2022-12-10T14:26:06;1.10;99.90
39067;DHT22;24821;51.988;6.020;2022-12-10T14:28:40;1.00;99.90
39067;DHT22;24821;51.988;6.020;2022-12-10T14:31:13;0.90;99.90
39067;DHT22;24821;51.988;6.020;2022-12-10T14:33:42;0.80;99.90
39067;DHT22;24821;51.988;6.020;2022-12-10T14:36:16;0.80;99.90
39067;DHT22;24821;51.988;6.020;2022-12-10T14:38:42;0.70;99.90
39067;DHT22;24821;51.988;6.020;2022-12-10T14:41:10;0.70;99.90
39067;DHT22;24821;51.988;6.020;2022-12-10T14:43:39;0.70;99.90
39067;DHT22;24821;51.988;6.020;2022-12-10T14:46:11;0.60;99.90
39067;DHT22;24821;51.988;6.020;2022-12-10T14:48:41;0.70;99.90
39067;DHT22;24821;51.988;6.020;2022-12-10T14:51:19;0.70;99.90
39067;DHT22;24821;51.988;6.020;2022-12-10T14:53:46;0.70;99.90
39067;DHT22;24821;51.988;6.020;2022-12-10T14:56:20;0.80;99.90
39067;DHT22;24821;51.988;6.020;2022-12-10T15:01:28;0.80;99.90
39067;DHT22;24821;51.988;6.020;2022-12-10T15:03:56;0.80;99.90
39067;DHT22;24821;51.988;6.020;2022-12-10T15:06:22;0.70;99.90
39067;DHT22;24821;51.988;6.020;2022-12-10T15:08:49;0.70;99.90
39067;DHT22;24821;51.988;6.020;2022-12-10T15:11:18;0.80;99.90
39067;DHT22;24821;51.988;6.020;2022-12-10T15:13:49;0.80;99.90
39067;DHT22;24821;51.988;6.020;2022-12-10T15:16:28;0.90;99.90
39067;DHT22;24821;51.988;6.020;2022-12-10T15:18:55;0.90;99.90
39067;DHT22;24821;51.988;6.020;2022-12-10T15:21:24;0.90;99.90
39067;DHT22;24821;51.988;6.020;2022-12-10T15:23:50;1.00;99.90
39067;DHT22;24821;51.988;6.020;2022-12-10T15:26:33;1.00;99.90
39067;DHT22;24821;51.988;6.020;2022-12-10T15:32:01;1.00;99.90
39067;DHT22;24821;51.988;6.020;2022-12-10T15:34:29;1.00;99.90
39067;DHT22;24821;51.988;6.020;2022-12-10T15:37:01;1.00;99.90
39067;DHT22;24821;51.988;6.020;2022-12-10T15:39:28;1.00;99.90
39067;DHT22;24821;51.988;6.020;2022-12-10T15:41:59;1.00;99.90
39067;DHT22;24821;51.988;6.020;2022-12-10T15:44:32;1.00;99.90
39067;DHT22;24821;51.988;6.020;2022-12-10T15:47:09;1.00;99.90
39067;DHT22;24821;51.988;6.020;2022-12-10T15:49:37;1.00;99.90
39067;DHT22;24821;51.988;6.020;2022-12-10T15:52:04;0.90;99.90
39067;DHT22;24821;51.988;6.020;2022-12-10T15:54:38;0.90;99.90
39067;DHT22;24821;51.988;6.020;2022-12-10T15:57:17;1.00;99.90
39067;DHT22;24821;51.988;6.020;2022-12-10T16:00:04;1.10;99.90
39067;DHT22;24821;51.988;6.020;2022-12-10T16:05:29;1.20;99.90
39067;DHT22;24821;51.988;6.020;2022-12-10T16:07:56;1.20;99.90
39067;DHT22;24821;51.988;6.020;2022-12-10T16:10:26;1.20;99.90
39067;DHT22;24821;51.988;6.020;2022-12-10T16:15:26;1.20;99.90
39067;DHT22;24821;51.988;6.020;2022-12-10T16:17:52;1.20;99.90
39067;DHT22;24821;51.988;6.020;2022-12-10T16:20:25;1.20;99.90
39067;DHT22;24821;51.988;6.020;2022-12-10T16:22:52;1.20;99.90
39067;DHT22;24821;51.988;6.020;2022-12-10T16:25:17;1.20;99.90
39067;DHT22;24821;51.988;6.020;2022-12-10T16:27:43;1.20;99.90
39067;DHT22;24821;51.988;6.020;2022-12-10T16:30:39;1.20;99.90
39067;DHT22;24821;51.988;6.020;2022-12-10T16:33:05;1.30;99.90
39067;DHT22;24821;51.988;6.020;2022-12-10T16:35:31;1.30;99.90
39067;DHT22;24821;51.988;6.020;2022-12-10T16:37:57;1.20;99.90
39067;DHT22;24821;51.988;6.020;2022-12-10T16:40:25;1.30;99.90
39067;DHT22;24821;51.988;6.020;2022-12-10T16:42:52;1.20;99.90
39067;DHT22;24821;51.988;6.020;2022-12-10T16:45:22;1.30;99.90
39067;DHT22;24821;51.988;6.020;2022-12-10T16:47:49;1.30;99.90
39067;DHT22;24821;51.988;6.020;2022-12-10T16:50:16;1.40;99.90
39067;DHT22;24821;51.988;6.020;2022-12-10T16:52:42;1.40;99.90
39067;DHT22;24821;51.988;6.020;2022-12-10T16:55:12;1.40;99.90
39067;DHT22;24821;51.988;6.020;2022-12-10T16:57:38;1.40;99.90
39067;DHT22;24821;51.988;6.020;2022-12-10T17:00:09;1.40;99.90
39067;DHT22;24821;51.988;6.020;2022-12-10T17:02:34;1.40;99.90
39067;DHT22;24821;51.988;6.020;2022-12-10T17:05:00;1.40;99.90
39067;DHT22;24821;51.988;6.020;2022-12-10T17:07:26;1.40;99.90
39067;DHT22;24821;51.988;6.020;2022-12-10T17:09:51;1.40;99.90
39067;DHT22;24821;51.988;6.020;2022-12-10T17:12:17;1.30;99.90
39067;DHT22;24821;51.988;6.020;2022-12-10T17:14:44;1.30;99.90
39067;DHT22;24821;51.988;6.020;2022-12-10T17:17:15;1.20;99.90
39067;DHT22;24821;51.988;6.020;2022-12-10T17:19:41;1.20;99.90
39067;DHT22;24821;51.988;6.020;2022-12-10T17:22:08;1.10;99.90
39067;DHT22;24821;51.988;6.020;2022-12-10T17:24:35;1.10;99.90
39067;DHT22;24821;51.988;6.020;2022-12-10T17:27:27;1.10;99.90
39067;DHT22;24821;51.988;6.020;2022-12-10T17:29:53;1.10;99.90
39067;DHT22;24821;51.988;6.020;2022-12-10T17:32:19;1.00;99.90
39067;DHT22;24821;51.988;6.020;2022-12-10T17:34:45;1.00;99.90
39067;DHT22;24821;51.988;6.020;2022-12-10T17:37:13;1.00;99.90
39067;DHT22;24821;51.988;6.020;2022-12-10T17:39:40;1.00;99.90
39067;DHT22;24821;51.988;6.020;2022-12-10T17:42:05;1.00;99.90
39067;DHT22;24821;51.988;6.020;2022-12-10T17:44:33;1.00;99.90
39067;DHT22;24821;51.988;6.020;2022-12-10T17:46:59;1.00;99.90
39067;DHT22;24821;51.988;6.020;2022-12-10T17:49:25;1.00;99.90